Terminal Aerodrome Forecast
Issued by NWS

Home | Current Version | Previous Version | Text Only | Print | Product List | Glossary On
Versions: 1 2 3 4 5 6 7 8 9 10 11 12 13 14 15 16 17 18 19 20 21 22
000
FTUS44 KOHX 221700 AAA
TAFCKV
TAF AMD
KCKV 221757Z 2218/2318 15011KT P6SM OVC015
     FM221930 15011KT 5SM SHRA BR BKN015 OVC030
      TEMPO 2220/2222 SCT015 OVC030
     FM230200 17013KT 4SM BR VCSH OVC008
     FM230700 18011KT 4SM BR OVC006
      TEMPO 2309/2313 -SHRA
     FM231300 26005KT 4SM -SHRA BR OVC012=

USA.gov is the U.S. government's official web portal to all federal, state and local government web resources and services.